Time;durP1;ratioP1;P1;durP2;ratioP2;P2;SDS_P1;SDS_P2;PMS_P1;PMS_P2;Temp;Humidity;BMP_temperature;BMP_pressure;BME280_temperature;BME280_humidity;BME280_pressure;Samples;Min_cycle;Max_cycle;Signal;HPM_P1;HPM_P2
2022/05/26 00:04:24;;;;;;;10.45;8.27;;;;;;;12.89;82.65;101527.47;4971868;28;20031;-84
2022/05/26 00:07:01;;;;;;;12.93;8.13;;;;;;;13.35;82.97;101605.00;4972681;28;20027;-84
2022/05/26 00:09:34;;;;;;;9.68;8.13;;;;;;;12.90;82.93;101534.31;4972104;28;20035;-85
2022/05/26 00:12:00;;;;;;;8.55;7.43;;;;;;;13.60;83.12;101634.63;4972330;28;20042;-84
2022/05/26 00:14:31;;;;;;;10.07;8.00;;;;;;;13.02;82.88;101537.06;4972481;28;20042;-84
2022/05/26 00:17:07;;;;;;;;;;;;;;;;;;;;;
2022/05/26 00:19:33;;;;;;;9.88;7.60;;;;;;;13.78;82.99;101662.03;4971802;28;20034;-85
2022/05/26 00:21:58;;;;;;;9.18;7.40;;;;;;;13.43;82.71;101609.72;4972078;28;20097;-85
2022/05/26 00:24:24;;;;;;;9.80;8.35;;;;;;;13.53;82.86;101634.19;4972306;28;20578;-84
2022/05/26 00:26:49;;;;;;;10.60;7.95;;;;;;;14.13;83.14;101729.91;4972205;28;20043;-84
2022/05/26 00:29:15;;;;;;;11.90;7.85;;;;;;;13.15;82.92;101569.06;4972123;28;20145;-84
2022/05/26 00:31:40;;;;;;;10.27;7.95;;;;;;;13.03;83.07;101551.69;4971383;28;20058;-83
2022/05/26 00:34:21;;;;;;;10.63;7.93;;;;;;;12.92;82.85;101532.44;4974969;28;20065;-85
2022/05/26 00:36:47;;;;;;;9.05;7.85;;;;;;;13.30;83.03;101595.88;5052460;28;20496;-84
2022/05/26 00:39:16;;;;;;;9.27;7.25;;;;;;;13.47;83.16;101626.78;5052853;28;20025;-84
2022/05/26 00:42:07;;;;;;;12.18;7.50;;;;;;;14.14;82.65;101734.16;5052560;28;20435;-85
2022/05/26 00:44:33;;;;;;;9.85;7.65;;;;;;;13.02;82.85;101550.03;5052628;28;20070;-84
2022/05/26 00:47:27;;;;;;;12.52;7.70;;;;;;;13.03;82.74;101556.88;5052676;28;20056;-84
2022/05/26 00:53:15;;;;;;;11.77;8.20;;;;;;;13.60;82.93;101639.81;5098597;23;20052;-84
2022/05/26 00:56:17;;;;;;;11.20;7.82;;;;;;;13.86;83.14;101697.88;5091428;28;20463;-85
2022/05/26 00:58:47;;;;;;;10.95;7.22;;;;;;;14.06;83.61;101726.88;5092753;28;20028;-84
2022/05/26 01:01:16;;;;;;;11.50;8.20;;;;;;;13.39;83.68;101616.88;5092733;28;20032;-85
2022/05/26 01:03:44;;;;;;;14.18;8.05;;;;;;;14.05;83.63;101724.34;5092613;28;20024;-84
2022/05/26 01:06:36;;;;;;;13.48;8.52;;;;;;;14.09;83.44;101730.22;5092169;28;20028;-84
2022/05/26 01:09:06;;;;;;;13.55;7.80;;;;;;;13.61;83.58;101659.66;5030235;28;20428;-85
2022/05/26 01:11:37;;;;;;;12.55;8.15;;;;;;;13.02;83.84;101566.41;5029620;28;20566;-84
2022/05/26 01:14:27;;;;;;;10.50;8.38;;;;;;;14.00;83.56;101727.25;5030415;28;20414;-85
2022/05/26 01:17:14;;;;;;;13.40;8.68;;;;;;;13.69;84.26;101676.41;5030237;28;20073;-83
2022/05/26 01:20:26;;;;;;;15.27;9.10;;;;;;;14.04;83.82;101736.50;5030280;28;20071;-84
2022/05/26 01:22:57;;;;;;;11.55;7.85;;;;;;;13.97;84.10;101729.22;5030396;28;20049;-85
2022/05/26 01:25:56;;;;;;;13.38;8.00;;;;;;;14.05;83.84;101732.97;5030262;28;20141;-84
2022/05/26 01:28:27;;;;;;;13.82;8.32;;;;;;;13.80;84.28;101711.25;5030735;28;20504;-85
2022/05/26 01:31:13;;;;;;;13.40;8.27;;;;;;;13.95;84.24;101731.88;5030582;28;20033;-84
2022/05/26 01:34:10;;;;;;;14.40;9.15;;;;;;;14.00;84.13;101744.59;5030313;28;20473;-84
2022/05/26 01:36:53;;;;;;;15.18;9.43;;;;;;;14.01;84.52;101747.09;5029918;28;20057;-84
2022/05/26 01:39:54;;;;;;;15.02;8.65;;;;;;;13.88;84.35;101735.81;5050004;28;20082;-85
2022/05/26 01:42:46;;;;;;;14.70;9.25;;;;;;;14.00;84.39;101758.41;5092691;28;20435;-85
2022/05/26 01:45:37;;;;;;;14.68;9.52;;;;;;;14.00;84.75;101755.81;5092396;28;20035;-85
2022/05/26 01:48:39;;;;;;;;;;;;;;;;;;;;;
2022/05/26 01:51:29;;;;;;;13.55;9.07;;;;;;;13.99;84.83;101758.53;5039545;28;20044;-85
2022/05/26 01:54:19;;;;;;;13.60;8.93;;;;;;;13.98;84.87;101762.88;5092155;28;20028;-85
2022/05/26 01:57:21;;;;;;;16.90;9.73;;;;;;;13.98;85.14;101762.88;5092145;28;20110;-84
2022/05/26 02:00:01;;;;;;;16.35;9.50;;;;;;;13.55;85.09;101693.75;5074236;28;20038;-84
2022/05/26 02:02:38;;;;;;;18.45;9.38;;;;;;;12.81;85.32;101576.34;5094270;28;20032;-85
2022/05/26 02:05:21;;;;;;;13.52;9.10;;;;;;;13.54;85.17;101695.53;5095698;28;20106;-85
2022/05/26 02:08:31;;;;;;;18.10;9.82;;;;;;;13.95;85.35;101762.22;5095775;28;20020;-84
2022/05/26 02:11:20;;;;;;;16.50;10.45;;;;;;;13.92;85.50;101770.22;5077618;28;20035;-84
2022/05/26 02:17:27;;;;;;;17.23;10.25;;;;;;;13.89;85.74;101773.84;5121664;22;20047;-85
2022/05/26 02:20:19;;;;;;;17.67;10.23;;;;;;;13.89;85.91;101781.63;5116089;28;20050;-84
2022/05/26 02:23:06;;;;;;;;;;;;;;;13.91;84.98;101779.75;5097793;28;20383;-84
2022/05/26 02:26:03;;;;;;;15.02;10.10;;;;;;;13.87;86.08;101777.47;5116173;28;19912;-85
2022/05/26 02:29:51;;;;;;;16.77;10.95;;;;;;;13.16;86.16;101677.06;5115772;28;20031;-85
2022/05/26 02:31:22;;;;;;;18.55;10.23;;;;;;;13.75;86.51;101784.22;5112970;28;20040;-85
2022/05/26 02:33:47;;;;;;;15.82;10.00;;;;;;;13.73;86.64;101788.66;5115707;28;20031;-84
2022/05/26 02:36:14;;;;;;;16.92;10.70;;;;;;;13.74;86.71;101787.75;5116457;28;20028;-84
2022/05/26 02:38:39;;;;;;;18.75;10.45;;;;;;;13.64;86.83;101782.28;5115556;28;20415;-85
2022/05/26 02:41:04;;;;;;;20.65;11.60;;;;;;;13.61;87.16;101781.63;5115910;28;20066;-85
2022/05/26 02:43:33;;;;;;;20.20;10.75;;;;;;;13.69;87.30;101792.41;5116326;28;20107;-85
2022/05/26 02:46:57;;;;;;;19.13;10.88;;;;;;;13.35;87.01;101737.31;5115593;28;20020;-85
2022/05/26 02:53:21;;;;;;;23.35;11.50;;;;;;;13.72;87.05;101795.63;4973262;28;20034;-85
2022/05/26 02:56:14;;;;;;;21.13;11.60;;;;;;;13.73;87.08;101806.84;4974030;28;20114;-84
2022/05/26 03:02:53;;;;;;;19.55;11.45;;;;;;;13.69;87.22;101803.59;4973695;28;20077;-85
2022/05/26 03:05:43;;;;;;;18.35;11.20;;;;;;;13.23;87.39;101725.09;4973719;28;20506;-85
2022/05/26 03:08:23;;;;;;;17.60;11.18;;;;;;;13.69;87.26;101797.59;4973487;28;20034;-85
2022/05/26 03:11:24;;;;;;;21.60;11.83;;;;;;;13.70;87.20;101802.69;4973666;28;20530;-83
2022/05/26 03:13:50;;;;;;;23.77;11.35;;;;;;;13.43;87.48;101763.63;4972603;28;20057;-83
2022/05/26 03:16:17;;;;;;;23.77;12.30;;;;;;;13.68;87.35;101806.31;4973186;28;20393;-83
2022/05/26 03:18:45;;;;;;;19.95;11.90;;;;;;;13.32;87.60;101747.06;5170909;22;20052;-86
2022/05/26 03:21:10;;;;;;;21.20;11.95;;;;;;;13.09;87.33;101712.09;5074295;28;20017;-83
2022/05/26 03:23:51;;;;;;;22.08;12.00;;;;;;;12.68;87.51;101662.66;5074039;28;20087;-83
2022/05/26 03:26:17;;;;;;;21.02;12.13;;;;;;;13.45;87.87;101792.91;5055771;28;20145;-83
2022/05/26 03:28:58;;;;;;;21.98;12.27;;;;;;;12.42;87.59;101620.97;5074070;28;20415;-85
2022/05/26 03:31:24;;;;;;;27.52;12.88;;;;;;;12.52;87.68;101636.81;5012189;28;20045;-84
2022/05/26 03:43:06;;;;;;;24.90;11.43;;;;;;;13.51;88.37;101835.84;5073740;28;20051;-84
2022/05/26 03:45:44;;;;;;;21.70;11.00;;;;;;;12.30;88.22;101645.00;5073748;28;20428;-83
2022/05/26 03:48:18;;;;;;;22.50;11.30;;;;;;;13.00;88.18;101743.75;5055635;28;20472;-84
2022/05/26 03:50:44;;;;;;;24.35;10.70;;;;;;;12.71;88.05;101704.78;5055078;28;20059;-84
2022/05/26 03:53:14;;;;;;;19.27;9.98;;;;;;;13.10;88.15;101776.81;5073523;28;20516;-84
2022/05/26 03:55:49;;;;;;;24.45;10.50;;;;;;;12.25;88.18;101644.41;5073343;28;20115;-86
2022/05/26 03:58:14;;;;;;;26.77;9.77;;;;;;;12.84;88.61;101754.16;5073233;28;20427;-83
2022/05/26 04:00:39;;;;;;;24.73;10.35;;;;;;;13.28;88.72;101816.47;5073357;28;20028;-84
2022/05/26 04:03:08;;;;;;;23.70;10.00;;;;;;;13.14;88.82;101804.25;5073483;28;20456;-83
2022/05/26 04:05:39;;;;;;;26.42;10.23;;;;;;;12.55;88.71;101707.44;5073415;28;20426;-84
2022/05/26 04:08:11;;;;;;;21.30;9.27;;;;;;;12.31;88.43;101668.22;5073397;28;20024;-84
2022/05/26 04:10:39;;;;;;;19.33;8.15;;;;;;;13.11;88.50;101795.81;5073009;28;20027;-84
2022/05/26 04:13:04;;;;;;;21.38;8.63;;;;;;;13.07;88.16;101795.13;5073324;28;20380;-83
2022/05/26 04:15:30;;;;;;;26.17;9.50;;;;;;;12.59;88.15;101710.69;5056084;28;20029;-84
2022/05/26 04:17:58;;;;;;;24.00;9.05;;;;;;;13.13;88.25;101805.16;5073333;28;20036;-85
2022/05/26 04:20:27;;;;;;;26.05;9.63;;;;;;;13.50;88.13;101857.53;5073275;28;20479;-84
2022/05/26 04:22:52;;;;;;;24.80;8.38;;;;;;;12.48;87.84;101692.31;5073335;28;20025;-84
2022/05/26 04:25:30;;;;;;;22.50;7.93;;;;;;;12.60;87.79;101702.00;5072463;28;20024;-84
2022/05/26 04:27:55;;;;;;;22.65;8.25;;;;;;;12.79;87.64;101722.50;5055135;28;20044;-84
2022/05/26 04:30:27;;;;;;;21.27;8.35;;;;;;;12.77;87.31;101735.53;5073262;28;20028;-85
2022/05/26 04:33:14;;;;;;;23.80;8.55;;;;;;;12.71;87.16;101722.94;5073013;28;20028;-85
2022/05/26 04:35:56;;;;;;;22.98;7.70;;;;;;;13.17;86.98;101780.75;5072410;28;20103;-86
2022/05/26 04:38:22;;;;;;;18.55;7.70;;;;;;;13.73;86.88;101869.97;5072728;28;20490;-85
2022/05/26 04:41:06;;;;;;;19.77;7.57;;;;;;;13.14;86.52;101757.56;5072608;28;20028;-84
2022/05/26 04:43:44;;;;;;;23.60;9.40;;;;;;;13.60;85.79;101816.31;5072866;28;20025;-85
2022/05/26 04:46:31;;;;;;;20.75;8.43;;;;;;;14.04;85.46;101887.13;5073057;28;20558;-84
2022/05/26 04:48:56;;;;;;;19.95;8.07;;;;;;;13.01;84.83;101706.53;5072718;28;20036;-84
2022/05/26 04:51:25;;;;;;;23.08;8.18;;;;;;;14.18;84.60;101872.50;5050665;28;20084;-85
2022/05/26 04:54:08;;;;;;;19.58;7.68;;;;;;;13.67;83.64;101755.31;5050856;28;20164;-85
2022/05/26 04:56:59;;;;;;;23.55;6.97;;;;;;;14.71;82.91;101894.31;5050547;28;20435;-84
2022/05/26 04:59:27;;;;;;;21.05;8.10;;;;;;;13.66;81.88;101722.47;5050649;28;20040;-85
2022/05/26 05:05:11;;;;;;;20.58;7.03;;;;;;;14.45;81.67;101842.22;4971880;28;20101;-85
2022/05/26 05:07:45;;;;;;;22.17;7.25;;;;;;;13.71;81.22;101725.63;4971574;28;20034;-84
2022/05/26 05:10:20;;;;;;;25.20;7.43;;;;;;;14.41;81.47;101856.31;4971652;28;20145;-85
2022/05/26 05:12:49;;;;;;;23.27;7.88;;;;;;;14.76;81.27;101926.91;4971824;28;20065;-85
2022/05/26 05:15:45;;;;;;;23.27;8.60;;;;;;;14.76;81.76;101931.28;4955156;28;20034;-85
2022/05/26 05:18:10;;;;;;;23.88;7.88;;;;;;;13.64;81.84;101751.13;4971675;28;20474;-86
2022/05/26 05:23:38;;;;;;;23.35;7.70;;;;;;;13.45;81.99;101735.84;4952104;28;20035;-84
2022/05/26 05:29:43;;;;;;;19.75;7.85;;;;;;;13.59;82.23;101740.22;4914467;29;20039;-85
2022/05/26 05:32:51;;;;;;;20.67;7.70;;;;;;;14.84;81.88;101927.25;4914505;29;20111;-85
2022/05/26 05:38:30;;;;;;;20.65;7.20;;;;;;;13.95;80.77;101763.03;4933026;29;20416;-82
2022/05/26 05:40:55;;;;;;;23.55;7.40;;;;;;;14.30;80.68;101814.56;4936428;29;20048;-83
2022/05/26 05:43:24;;;;;;;21.75;8.45;;;;;;;14.11;80.49;101767.31;4936554;29;20415;-82
2022/05/26 05:46:19;;;;;;;23.00;7.90;;;;;;;14.26;80.26;101756.78;4935998;29;20102;-85
2022/05/26 05:48:51;;;;;;;24.33;8.43;;;;;;;14.55;78.49;101761.88;4936610;29;20028;-84
2022/05/26 05:51:17;;;;;;;21.70;7.25;;;;;;;14.73;77.70;101772.84;4936559;29;20036;-83
2022/05/26 05:53:44;;;;;;;21.90;6.90;;;;;;;14.84;77.11;101770.38;4936286;29;20042;-83
2022/05/26 05:56:21;;;;;;;21.95;8.73;;;;;;;15.91;76.62;101956.69;4936367;29;20036;-82
2022/05/26 05:58:47;;;;;;;21.85;7.40;;;;;;;15.17;76.72;101812.38;4936478;29;20072;-83
2022/05/26 06:01:12;;;;;;;19.85;6.75;;;;;;;15.88;76.19;101901.38;4920426;29;20067;-83
2022/05/26 06:03:39;;;;;;;19.83;7.65;;;;;;;16.47;74.26;101946.78;4936568;29;20036;-82
2022/05/26 06:06:11;;;;;;;22.30;7.03;;;;;;;17.04;72.81;101953.22;4968814;28;20030;-82
2022/05/26 06:08:37;;;;;;;22.40;6.90;;;;;;;17.69;70.83;101952.72;4994202;28;20023;-84
2022/05/26 06:11:03;;;;;;;16.52;6.03;;;;;;;18.37;67.24;101938.78;4994143;28;20045;-84
2022/05/26 06:13:29;;;;;;;14.90;5.82;;;;;;;18.08;65.92;101920.13;5052156;28;20037;-85
2022/05/26 06:15:54;;;;;;;20.30;5.90;;;;;;;17.81;67.38;101953.63;5055678;28;20021;-84
2022/05/26 06:18:25;;;;;;;20.83;6.80;;;;;;;17.49;68.75;101972.50;5055604;28;20519;-84
2022/05/26 06:20:53;;;;;;;;;;;;;;;17.37;69.76;101974.22;5055827;28;20057;-83
2022/05/26 06:23:19;;;;;;;22.48;6.57;;;;;;;16.64;71.01;101880.41;5036637;28;20352;-83
2022/05/26 06:25:44;;;;;;;20.55;6.68;;;;;;;17.17;69.92;101870.44;5037357;28;20013;-84
2022/05/26 06:39:31;;;;;;;20.30;6.82;;;;;;;19.14;60.59;101860.22;5055397;28;20182;-84
2022/05/26 06:42:10;;;;;;;18.75;6.50;;;;;;;19.15;61.35;101932.56;5055007;28;20400;-83
2022/05/26 06:45:03;;;;;;;20.55;6.65;;;;;;;19.36;62.96;101998.91;5060875;22;20037;-81
2022/05/26 06:47:29;;;;;;;17.70;6.43;;;;;;;18.72;63.27;101991.00;5015963;28;20111;-83
2022/05/26 06:49:54;;;;;;;17.13;7.20;;;;;;;18.93;63.20;101975.38;5035185;28;20104;-82
2022/05/26 06:52:23;;;;;;;17.50;7.05;;;;;;;19.17;62.08;101978.66;5034858;28;20057;-81
2022/05/26 06:54:59;;;;;;;16.90;6.57;;;;;;;18.61;62.09;101873.25;5034715;28;20161;-81
2022/05/26 06:57:24;;;;;;;16.63;6.53;;;;;;;19.91;60.33;102001.44;5034961;28;20033;-83
2022/05/26 07:00:00;;;;;;;16.77;6.57;;;;;;;20.28;56.38;101902.09;5016455;28;20064;-83
2022/05/26 07:05:12;;;;;;;17.58;6.57;;;;;;;21.16;54.50;101959.88;5035073;28;20031;-82
2022/05/26 07:07:39;;;;;;;17.63;6.05;;;;;;;22.42;51.27;101925.44;5035466;28;20059;-82
2022/05/26 07:10:47;;;;;;;16.80;5.93;;;;;;;22.77;48.55;101871.13;5012875;28;20038;-84
2022/05/26 07:13:23;;;;;;;13.43;5.65;;;;;;;23.10;47.68;101975.84;4954490;29;20436;-82
2022/05/26 07:16:10;;;;;;;13.57;5.25;;;;;;;22.31;48.54;101897.47;4954603;29;20479;-82
2022/05/26 07:19:06;;;;;;;14.35;5.45;;;;;;;23.31;47.96;102024.81;4954746;29;20051;-83
2022/05/26 07:21:32;;;;;;;13.30;5.40;;;;;;;22.26;48.19;101869.97;4954441;29;20047;-83
2022/05/26 07:23:57;;;;;;;11.40;5.15;;;;;;;22.44;47.99;101944.53;4954441;29;20114;-84
2022/05/26 07:27:05;;;;;;;15.50;5.53;;;;;;;23.54;48.34;102031.28;4953973;29;20407;-82
2022/05/26 07:32:27;;;;;;;13.98;5.03;;;;;;;21.23;48.49;101862.09;4954532;29;20054;-87
2022/05/26 07:35:08;;;;;;;12.68;5.20;;;;;;;19.87;51.85;101882.06;4953708;29;20043;-87
2022/05/26 07:46:52;;;;;;;14.88;5.75;;;;;;;18.55;56.15;101871.13;4975697;28;20051;-84
2022/05/26 07:52:52;;;;;;;12.77;5.40;;;;;;;18.46;59.23;101937.25;4953833;28;20054;-83
2022/05/26 07:55:18;;;;;;;14.02;6.07;;;;;;;18.59;59.44;101987.66;4953665;29;20041;-83
2022/05/26 07:57:45;;;;;;;12.73;5.60;;;;;;;18.81;59.98;102042.63;4960562;28;20038;-84
2022/05/26 08:00:11;;;;;;;13.02;5.78;;;;;;;18.09;60.54;101928.81;4972173;28;20486;-83
2022/05/26 08:02:39;;;;;;;11.98;5.75;;;;;;;19.01;60.65;102054.13;5155290;23;20509;-84
2022/05/26 08:05:30;;;;;;;11.95;5.70;;;;;;;19.10;58.70;102057.81;5093757;28;20032;-83
2022/05/26 08:07:55;;;;;;;10.93;5.13;;;;;;;19.06;59.29;102044.13;5093797;28;20024;-83
2022/05/26 08:10:20;;;;;;;15.13;5.95;;;;;;;18.79;58.24;101978.28;5093240;28;20047;-84
2022/05/26 08:12:46;;;;;;;9.93;5.22;;;;;;;18.61;59.66;101925.59;5093432;28;20383;-83
2022/05/26 08:15:12;;;;;;;13.20;5.55;;;;;;;19.49;57.91;102057.22;5093598;28;20035;-84
2022/05/26 08:22:56;;;;;;;12.02;5.10;;;;;;;18.43;58.55;101924.41;5039235;23;20061;-84
2022/05/26 08:25:27;;;;;;;12.48;5.38;;;;;;;18.51;59.48;102014.41;5033029;28;20095;-84
2022/05/26 08:27:59;;;;;;;12.88;4.68;;;;;;;17.60;59.26;101885.50;5015083;28;20439;-86
2022/05/26 08:30:27;;;;;;;9.07;4.25;;;;;;;17.57;59.89;101885.75;5032903;28;20056;-86
2022/05/26 08:32:54;;;;;;;13.35;4.80;;;;;;;18.14;60.24;101953.66;5033074;28;20070;-82
2022/05/26 08:35:30;;;;;;;13.55;4.60;;;;;;;18.41;58.58;101978.63;5032951;28;20480;-84
2022/05/26 08:37:56;;;;;;;11.27;4.70;;;;;;;18.14;58.68;101939.75;5032735;28;20029;-85
2022/05/26 08:40:49;;;;;;;11.48;4.80;;;;;;;18.66;59.49;102045.59;5033080;28;20373;-82
2022/05/26 08:47:14;;;;;;;9.43;3.65;;;;;;;18.58;57.85;102001.66;5033149;28;20048;-84
2022/05/26 08:49:45;;;;;;;12.25;5.18;;;;;;;18.13;58.34;101902.34;5032791;28;20025;-83
2022/05/26 08:52:40;;;;;;;11.80;4.88;;;;;;;18.63;59.20;102005.59;5032701;28;20436;-84
2022/05/26 09:01:38;;;;;;;10.82;4.35;;;;;;;19.15;56.90;102000.66;5032844;28;20048;-83
2022/05/26 09:04:18;;;;;;;11.43;4.32;;;;;;;19.40;55.93;102013.44;5032834;28;20084;-83
2022/05/26 09:13:24;;;;;;;11.50;5.00;;;;;;;18.23;57.89;101918.97;5036034;28;20087;-82
2022/05/26 09:19:15;;;;;;;9.77;4.50;;;;;;;19.32;58.18;102015.03;5036896;28;20040;-82
2022/05/26 09:21:51;;;;;;;9.70;4.70;;;;;;;19.71;55.70;102071.22;5036287;28;20061;-82
2022/05/26 09:24:39;;;;;;;12.63;4.30;;;;;;;19.71;54.32;102086.97;5018770;28;20026;-81
2022/05/26 09:27:36;;;;;;;9.38;4.18;;;;;;;19.72;55.11;102107.78;5036455;28;20078;-81
2022/05/26 09:30:34;;;;;;;10.48;4.50;;;;;;;19.86;55.52;102106.69;5036600;28;20087;-78
2022/05/26 09:33:00;;;;;;;9.85;4.25;;;;;;;19.88;54.43;102106.56;4956389;28;20122;-82
2022/05/26 09:35:29;;;;;;;10.30;4.63;;;;;;;19.85;54.66;102109.41;4956066;29;20485;-79
2022/05/26 09:37:57;;;;;;;12.25;5.00;;;;;;;19.62;55.35;102114.75;4955931;29;20034;-82
2022/05/26 09:40:33;;;;;;;9.00;4.72;;;;;;;19.68;55.17;102121.28;4956145;29;20122;-76
2022/05/26 09:43:04;;;;;;;10.57;5.15;;;;;;;19.34;55.89;102123.94;4955846;29;20051;-76
2022/05/26 09:45:42;;;;;;;11.18;4.28;;;;;;;19.17;56.56;102117.44;4956159;29;20061;-80
2022/05/26 09:48:15;;;;;;;8.85;3.38;;;;;;;19.04;57.44;102123.75;4955702;28;20044;-81
2022/05/26 09:50:52;;;;;;;9.63;3.63;;;;;;;19.21;57.01;102123.25;4955814;29;20035;-81
2022/05/26 09:53:33;;;;;;;8.63;3.60;;;;;;;19.04;55.29;102101.00;4955653;29;20095;-80
2022/05/26 09:55:59;;;;;;;8.18;3.80;;;;;;;18.86;55.87;102078.88;4955991;29;20094;-79
2022/05/26 09:58:34;;;;;;;9.13;3.40;;;;;;;18.96;55.95;102103.38;4955620;29;20027;-80
2022/05/26 10:01:06;;;;;;;8.88;3.50;;;;;;;19.35;56.60;102106.44;4955629;29;20044;-82
2022/05/26 10:04:09;;;;;;;10.55;3.95;;;;;;;19.94;54.79;102121.75;4955397;29;20035;-83
2022/05/26 10:06:46;;;;;;;10.95;3.50;;;;;;;20.20;52.84;102130.09;4955642;29;20031;-83
2022/05/26 10:09:59;;;;;;;7.45;2.78;;;;;;;20.57;52.78;102120.84;5009696;28;20120;-80
2022/05/26 10:12:47;;;;;;;8.55;2.90;;;;;;;20.62;51.64;102126.53;4955386;29;20039;-80
2022/05/26 10:15:21;;;;;;;7.85;2.30;;;;;;;20.23;51.28;102130.66;4955497;29;20368;-81
2022/05/26 10:18:23;;;;;;;9.23;2.45;;;;;;;20.10;52.90;102139.69;4955219;29;20039;-81
2022/05/26 10:21:08;;;;;;;8.48;3.35;;;;;;;20.22;54.52;102130.81;4938646;28;20045;-85
2022/05/26 10:23:55;;;;;;;9.27;2.80;;;;;;;20.20;53.02;102136.19;4954837;28;20031;-83
2022/05/26 10:26:40;;;;;;;6.03;2.50;;;;;;;20.18;51.68;102132.88;4955347;29;20039;-84
2022/05/26 10:29:37;;;;;;;7.72;3.05;;;;;;;20.29;51.90;102127.56;4954790;29;20043;-83
2022/05/26 10:32:26;;;;;;;7.97;2.58;;;;;;;20.23;51.13;102106.25;4955158;29;20501;-81
2022/05/26 10:35:07;;;;;;;5.97;1.85;;;;;;;20.25;51.18;102141.03;4955006;29;20035;-83
2022/05/26 10:38:03;;;;;;;7.82;2.53;;;;;;;20.32;51.23;102140.41;4954905;29;20043;-83
2022/05/26 10:40:50;;;;;;;6.53;2.50;;;;;;;20.36;50.53;102132.28;4955026;29;20114;-81
2022/05/26 10:43:23;;;;;;;8.52;3.05;;;;;;;20.52;49.53;102138.75;4954741;29;20494;-83
2022/05/26 10:45:51;;;;;;;7.57;3.03;;;;;;;20.57;51.17;102122.66;4980755;28;20454;-82
2022/05/26 10:48:39;;;;;;;7.20;2.80;;;;;;;20.71;52.06;102130.16;5034893;28;20494;-83
2022/05/26 10:51:20;;;;;;;6.90;2.33;;;;;;;20.95;50.11;102137.75;5034865;28;20436;-83
2022/05/26 10:54:05;;;;;;;4.43;1.83;;;;;;;20.86;48.07;102134.13;5034944;28;20033;-84
2022/05/26 10:56:48;;;;;;;5.03;1.95;;;;;;;20.70;49.63;102088.28;5034826;28;20504;-84
2022/05/26 10:59:21;;;;;;;7.63;2.45;;;;;;;21.25;49.65;102121.13;5034518;28;20044;-83
2022/05/26 11:02:29;;;;;;;5.22;2.50;;;;;;;21.58;48.53;102146.22;5034657;28;20033;-82
2022/05/26 11:05:01;;;;;;;8.38;2.58;;;;;;;21.12;48.89;102126.59;4954491;29;20039;-81
2022/05/26 11:07:33;;;;;;;6.10;2.47;;;;;;;21.03;49.53;102150.19;4954507;28;20420;-83
2022/05/26 11:10:12;;;;;;;7.47;2.30;;;;;;;20.59;48.86;102146.97;4954494;29;20027;-82
2022/05/26 11:12:48;;;;;;;7.82;2.22;;;;;;;20.68;50.45;102150.59;4954232;29;20178;-83
2022/05/26 11:18:26;;;;;;;7.90;3.30;;;;;;;20.65;50.93;102107.09;4954328;29;20038;-81
2022/05/26 11:20:54;;;;;;;8.82;3.20;;;;;;;20.81;50.75;102117.91;4953955;29;20094;-83
2022/05/26 11:23:21;;;;;;;5.80;2.42;;;;;;;20.79;50.09;102135.59;4954304;29;20066;-82
2022/05/26 11:26:00;;;;;;;6.50;2.42;;;;;;;20.88;49.95;102137.44;4953945;29;20027;-83
2022/05/26 11:28:41;;;;;;;5.93;2.10;;;;;;;21.10;50.99;102135.56;4954033;29;20050;-81
2022/05/26 11:36:56;;;;;;;8.32;2.88;;;;;;;21.00;48.35;102119.78;4954772;29;20218;-80
2022/05/26 11:39:29;;;;;;;9.05;3.63;;;;;;;20.96;48.33;102128.06;4961860;28;20581;-82
2022/05/26 11:42:03;;;;;;;7.75;3.17;;;;;;;20.98;49.98;102126.97;5033804;28;20385;-82
2022/05/26 11:44:57;;;;;;;7.35;3.40;;;;;;;21.08;48.89;102119.13;5033948;28;20029;-82
2022/05/26 11:47:53;;;;;;;6.55;3.55;;;;;;;21.01;48.52;102118.81;4953574;29;20046;-84
2022/05/26 11:50:46;;;;;;;6.18;3.38;;;;;;;20.98;48.68;102124.34;4953781;29;20035;-87
2022/05/26 11:53:34;;;;;;;9.07;4.40;;;;;;;20.82;48.11;102095.09;4953511;29;20645;-85
2022/05/26 11:56:04;;;;;;;9.95;6.10;;;;;;;21.24;49.07;102124.72;4953006;29;20039;-86
2022/05/26 11:58:42;;;;;;;11.47;7.47;;;;;;;21.17;49.11;102127.03;4954403;29;20476;-86
2022/05/26 12:01:19;;;;;;;9.98;6.88;;;;;;;21.15;49.09;102128.13;4953296;29;20305;-86
2022/05/26 12:03:53;;;;;;;12.57;7.07;;;;;;;21.59;49.73;102126.03;4953306;29;20153;-86
2022/05/26 12:06:51;;;;;;;11.68;8.60;;;;;;;21.72;48.93;102119.53;4953526;29;20042;-86
2022/05/26 12:09:21;;;;;;;12.65;10.48;;;;;;;21.75;49.51;102108.75;4953301;29;20027;-86
2022/05/26 12:12:17;;;;;;;11.02;9.68;;;;;;;22.12;48.14;102120.38;4953337;29;20451;-86
2022/05/26 12:14:45;;;;;;;13.38;10.57;;;;;;;22.24;48.58;102108.75;4953215;29;20082;-86
2022/05/26 12:17:24;;;;;;;14.30;10.15;;;;;;;22.39;47.49;102099.41;4953222;29;20046;-84
2022/05/26 12:19:51;;;;;;;13.90;10.48;;;;;;;22.35;45.73;102107.75;4952973;29;20063;-84
2022/05/26 12:22:41;;;;;;;10.43;9.07;;;;;;;22.35;46.71;102082.25;4952990;29;20141;-86
2022/05/26 12:25:20;;;;;;;11.57;8.93;;;;;;;22.40;46.05;102094.97;5019897;28;20523;-85
2022/05/26 12:27:48;;;;;;;12.93;9.32;;;;;;;22.25;44.85;102100.69;5032944;28;20541;-84
2022/05/26 12:30:44;;;;;;;10.77;8.05;;;;;;;22.22;46.78;102102.75;5032974;28;20021;-86
2022/05/26 12:33:22;;;;;;;9.85;7.55;;;;;;;22.11;45.88;102100.31;5033054;28;20033;-84
2022/05/26 12:36:02;;;;;;;11.05;7.43;;;;;;;21.99;46.00;102100.44;5032940;28;20033;-86
2022/05/26 12:39:05;;;;;;;9.68;7.32;;;;;;;22.13;45.81;102093.13;5032985;28;20021;-86
2022/05/26 12:42:04;;;;;;;9.88;7.50;;;;;;;22.13;45.88;102093.13;5032797;28;20040;-85
2022/05/26 12:45:09;;;;;;;10.52;7.22;;;;;;;22.05;45.93;102094.63;5033061;28;20481;-80
2022/05/26 12:48:10;;;;;;;11.30;7.18;;;;;;;21.87;46.39;102072.63;5033072;28;20036;-85
2022/05/26 12:50:42;;;;;;;10.10;6.72;;;;;;;22.08;47.25;102097.97;5033002;28;20075;-86
2022/05/26 12:53:30;;;;;;;8.95;6.32;;;;;;;22.44;46.83;102091.09;5032815;28;20029;-85
2022/05/26 12:56:47;;;;;;;9.13;5.97;;;;;;;22.42;43.92;102056.16;5032622;28;20397;-83
2022/05/26 12:59:14;;;;;;;8.80;5.28;;;;;;;22.61;45.25;102079.78;4936548;29;20051;-86
2022/05/26 13:01:40;;;;;;;10.07;6.00;;;;;;;22.63;43.84;102083.13;4952301;29;20497;-89
2022/05/26 13:04:14;;;;;;;11.25;6.25;;;;;;;22.64;44.94;102076.06;4952671;29;20027;-86
2022/05/26 13:06:43;;;;;;;7.82;5.55;;;;;;;22.63;44.35;102056.81;4952469;29;20127;-90
2022/05/26 13:09:24;;;;;;;9.73;6.45;;;;;;;22.83;45.10;102078.63;4952405;29;20055;-86
2022/05/26 13:12:01;;;;;;;9.20;5.32;;;;;;;22.78;46.09;102081.66;4952441;29;20078;-84
2022/05/26 13:14:47;;;;;;;12.60;6.45;;;;;;;22.61;44.72;102075.38;4952418;29;20031;-86
2022/05/26 13:17:15;;;;;;;10.18;5.45;;;;;;;22.38;45.53;102076.69;4952155;29;20113;-86
2022/05/26 13:19:51;;;;;;;9.55;5.90;;;;;;;22.32;46.56;102087.81;4952512;29;20082;-87
2022/05/26 13:22:38;;;;;;;11.20;6.10;;;;;;;22.41;45.29;102088.72;4952176;29;20058;-87
2022/05/26 13:25:08;;;;;;;7.85;5.00;;;;;;;22.27;45.63;102087.41;4952201;29;20050;-85
2022/05/26 13:27:54;;;;;;;8.73;4.95;;;;;;;22.33;45.50;102073.69;4952402;29;20043;-89
2022/05/26 13:33:11;;;;;;;9.63;5.32;;;;;;;22.40;44.66;102034.44;4952449;29;20058;-89
2022/05/26 13:35:42;;;;;;;8.50;5.60;;;;;;;22.52;44.98;102057.81;5023086;28;20040;-86
2022/05/26 13:38:28;;;;;;;10.40;6.25;;;;;;;22.55;44.72;102070.69;5032508;28;20109;-90
2022/05/26 13:40:54;;;;;;;10.95;6.28;;;;;;;22.08;45.17;102077.75;5032290;28;20103;-87
2022/05/26 13:43:20;;;;;;;8.10;5.40;;;;;;;21.64;45.49;102079.16;5032763;28;20025;-87
2022/05/26 13:45:46;;;;;;;12.55;5.30;;;;;;;21.37;47.39;102059.63;5041200;28;20028;-82
2022/05/26 13:48:38;;;;;;;9.98;5.00;;;;;;;21.44;47.99;102081.75;5051896;28;20025;-85
2022/05/26 13:51:17;;;;;;;7.90;5.28;;;;;;;21.46;48.26;102076.38;5052406;28;20029;-84
2022/05/26 13:53:49;;;;;;;10.65;5.22;;;;;;;21.81;47.36;102070.53;5052359;28;20116;-86
2022/05/26 13:56:26;;;;;;;6.80;4.50;;;;;;;21.92;47.17;102036.19;5052130;28;20456;-86